sensor_id;sensor_type;location;lat;lon;timestamp;P1;durP1;ratioP1;P2;durP2;ratioP2
75171;SDS011;63750;52.418;20.742;2023-06-22T00:00:02;30.70;;;28.10;;
75171;SDS011;63750;52.418;20.742;2023-06-22T00:02:32;32.20;;;29.30;;
75171;SDS011;63750;52.418;20.742;2023-06-22T00:05:00;30.60;;;27.80;;
75171;SDS011;63750;52.418;20.742;2023-06-22T00:07:28;32.60;;;29.70;;
75171;SDS011;63750;52.418;20.742;2023-06-22T00:09:56;30.90;;;28.10;;
75171;SDS011;63750;52.418;20.742;2023-06-22T00:12:24;30.30;;;27.40;;
75171;SDS011;63750;52.418;20.742;2023-06-22T00:14:52;30.10;;;27.30;;
75171;SDS011;63750;52.418;20.742;2023-06-22T00:17:20;29.60;;;26.70;;
75171;SDS011;63750;52.418;20.742;2023-06-22T00:19:48;32.40;;;29.40;;
75171;SDS011;63750;52.418;20.742;2023-06-22T00:22:16;30.70;;;27.90;;
75171;SDS011;63750;52.418;20.742;2023-06-22T00:24:44;30.80;;;28.10;;
75171;SDS011;63750;52.418;20.742;2023-06-22T00:27:12;32.70;;;29.80;;
75171;SDS011;63750;52.418;20.742;2023-06-22T00:29:41;33.00;;;30.00;;
75171;SDS011;63750;52.418;20.742;2023-06-22T00:32:09;37.10;;;33.80;;
75171;SDS011;63750;52.418;20.742;2023-06-22T00:34:37;39.10;;;35.50;;
75171;SDS011;63750;52.418;20.742;2023-06-22T00:37:05;38.60;;;35.00;;
75171;SDS011;63750;52.418;20.742;2023-06-22T00:39:33;37.10;;;33.90;;
75171;SDS011;63750;52.418;20.742;2023-06-22T00:42:01;37.60;;;34.30;;
75171;SDS011;63750;52.418;20.742;2023-06-22T00:44:30;34.80;;;31.60;;
75171;SDS011;63750;52.418;20.742;2023-06-22T00:46:59;36.60;;;33.40;;
75171;SDS011;63750;52.418;20.742;2023-06-22T00:49:27;37.30;;;34.00;;
75171;SDS011;63750;52.418;20.742;2023-06-22T00:51:55;34.80;;;31.70;;
75171;SDS011;63750;52.418;20.742;2023-06-22T00:54:24;34.50;;;31.50;;
75171;SDS011;63750;52.418;20.742;2023-06-22T00:56:53;35.00;;;31.70;;
75171;SDS011;63750;52.418;20.742;2023-06-22T00:59:21;32.40;;;29.50;;
75171;SDS011;63750;52.418;20.742;2023-06-22T01:01:50;35.10;;;31.80;;
75171;SDS011;63750;52.418;20.742;2023-06-22T01:04:18;32.40;;;29.50;;
75171;SDS011;63750;52.418;20.742;2023-06-22T01:06:49;33.00;;;30.20;;
75171;SDS011;63750;52.418;20.742;2023-06-22T01:09:22;34.60;;;31.40;;
75171;SDS011;63750;52.418;20.742;2023-06-22T01:11:56;31.90;;;29.20;;
75171;SDS011;63750;52.418;20.742;2023-06-22T01:14:28;31.30;;;28.60;;
75171;SDS011;63750;52.418;20.742;2023-06-22T01:17:04;32.90;;;30.00;;
75171;SDS011;63750;52.418;20.742;2023-06-22T01:19:37;31.20;;;28.30;;
75171;SDS011;63750;52.418;20.742;2023-06-22T01:22:11;32.30;;;29.40;;
75171;SDS011;63750;52.418;20.742;2023-06-22T01:24:45;33.40;;;30.40;;
75171;SDS011;63750;52.418;20.742;2023-06-22T01:27:28;31.40;;;28.60;;
75171;SDS011;63750;52.418;20.742;2023-06-22T01:30:07;32.20;;;29.40;;
75171;SDS011;63750;52.418;20.742;2023-06-22T01:32:37;32.40;;;29.60;;
75171;SDS011;63750;52.418;20.742;2023-06-22T01:35:07;36.20;;;32.90;;
75171;SDS011;63750;52.418;20.742;2023-06-22T01:37:37;33.40;;;30.40;;
75171;SDS011;63750;52.418;20.742;2023-06-22T01:40:06;33.80;;;30.60;;
75171;SDS011;63750;52.418;20.742;2023-06-22T01:42:36;33.50;;;30.40;;
75171;SDS011;63750;52.418;20.742;2023-06-22T01:45:06;36.70;;;33.40;;
75171;SDS011;63750;52.418;20.742;2023-06-22T01:47:36;31.00;;;28.40;;
75171;SDS011;63750;52.418;20.742;2023-06-22T01:50:06;38.40;;;35.00;;
75171;SDS011;63750;52.418;20.742;2023-06-22T01:52:35;33.80;;;30.80;;
75171;SDS011;63750;52.418;20.742;2023-06-22T01:55:04;39.40;;;35.80;;
75171;SDS011;63750;52.418;20.742;2023-06-22T01:57:33;40.70;;;37.00;;
75171;SDS011;63750;52.418;20.742;2023-06-22T02:00:02;39.70;;;36.00;;
75171;SDS011;63750;52.418;20.742;2023-06-22T02:02:36;35.30;;;32.10;;
75171;SDS011;63750;52.418;20.742;2023-06-22T02:05:09;35.80;;;32.60;;
75171;SDS011;63750;52.418;20.742;2023-06-22T02:07:41;40.10;;;36.30;;
75171;SDS011;63750;52.418;20.742;2023-06-22T02:10:12;43.00;;;38.90;;
75171;SDS011;63750;52.418;20.742;2023-06-22T02:12:44;42.20;;;38.20;;
75171;SDS011;63750;52.418;20.742;2023-06-22T02:15:14;43.70;;;39.70;;
75171;SDS011;63750;52.418;20.742;2023-06-22T02:17:43;41.00;;;37.00;;
75171;SDS011;63750;52.418;20.742;2023-06-22T02:20:13;39.70;;;36.10;;
75171;SDS011;63750;52.418;20.742;2023-06-22T02:22:42;40.80;;;36.70;;
75171;SDS011;63750;52.418;20.742;2023-06-22T02:25:10;40.30;;;36.50;;
75171;SDS011;63750;52.418;20.742;2023-06-22T02:27:38;41.70;;;37.90;;
75171;SDS011;63750;52.418;20.742;2023-06-22T02:30:08;39.60;;;36.00;;
75171;SDS011;63750;52.418;20.742;2023-06-22T02:32:36;37.80;;;34.30;;
75171;SDS011;63750;52.418;20.742;2023-06-22T02:35:05;37.30;;;33.80;;
75171;SDS011;63750;52.418;20.742;2023-06-22T02:37:33;34.80;;;31.40;;
75171;SDS011;63750;52.418;20.742;2023-06-22T02:40:04;36.20;;;32.80;;
75171;SDS011;63750;52.418;20.742;2023-06-22T02:42:33;36.80;;;33.40;;
75171;SDS011;63750;52.418;20.742;2023-06-22T02:45:01;34.00;;;30.70;;
75171;SDS011;63750;52.418;20.742;2023-06-22T02:47:30;36.00;;;32.70;;
75171;SDS011;63750;52.418;20.742;2023-06-22T02:49:59;36.10;;;32.70;;
75171;SDS011;63750;52.418;20.742;2023-06-22T02:52:27;35.00;;;31.60;;
75171;SDS011;63750;52.418;20.742;2023-06-22T02:54:55;38.40;;;34.70;;
75171;SDS011;63750;52.418;20.742;2023-06-22T02:57:23;31.70;;;28.60;;
75171;SDS011;63750;52.418;20.742;2023-06-22T02:59:51;32.60;;;29.50;;
75171;SDS011;63750;52.418;20.742;2023-06-22T03:02:19;32.10;;;29.10;;
75171;SDS011;63750;52.418;20.742;2023-06-22T03:04:48;31.80;;;28.70;;
75171;SDS011;63750;52.418;20.742;2023-06-22T03:07:16;30.80;;;27.80;;
75171;SDS011;63750;52.418;20.742;2023-06-22T03:09:44;32.50;;;29.10;;
75171;SDS011;63750;52.418;20.742;2023-06-22T03:12:12;30.90;;;27.90;;
75171;SDS011;63750;52.418;20.742;2023-06-22T03:14:40;30.10;;;27.20;;
75171;SDS011;63750;52.418;20.742;2023-06-22T03:17:09;30.20;;;27.30;;
75171;SDS011;63750;52.418;20.742;2023-06-22T03:19:37;29.40;;;26.70;;
75171;SDS011;63750;52.418;20.742;2023-06-22T03:22:05;28.50;;;25.60;;
75171;SDS011;63750;52.418;20.742;2023-06-22T03:24:34;28.40;;;25.70;;
75171;SDS011;63750;52.418;20.742;2023-06-22T03:27:02;27.70;;;25.10;;
75171;SDS011;63750;52.418;20.742;2023-06-22T03:29:31;28.40;;;25.70;;
75171;SDS011;63750;52.418;20.742;2023-06-22T03:31:59;28.60;;;25.80;;
75171;SDS011;63750;52.418;20.742;2023-06-22T03:34:27;26.50;;;23.80;;
75171;SDS011;63750;52.418;20.742;2023-06-22T03:36:55;27.00;;;24.20;;
75171;SDS011;63750;52.418;20.742;2023-06-22T03:39:23;25.90;;;23.30;;
75171;SDS011;63750;52.418;20.742;2023-06-22T03:41:51;25.50;;;23.00;;
75171;SDS011;63750;52.418;20.742;2023-06-22T03:44:19;26.50;;;23.90;;
75171;SDS011;63750;52.418;20.742;2023-06-22T03:46:47;24.80;;;22.40;;
75171;SDS011;63750;52.418;20.742;2023-06-22T03:49:16;25.00;;;22.50;;
75171;SDS011;63750;52.418;20.742;2023-06-22T03:51:44;27.90;;;24.90;;
75171;SDS011;63750;52.418;20.742;2023-06-22T03:54:12;25.70;;;23.10;;
75171;SDS011;63750;52.418;20.742;2023-06-22T03:56:40;26.60;;;23.90;;
75171;SDS011;63750;52.418;20.742;2023-06-22T03:59:08;26.80;;;24.10;;
75171;SDS011;63750;52.418;20.742;2023-06-22T04:01:36;25.00;;;22.40;;
75171;SDS011;63750;52.418;20.742;2023-06-22T04:04:05;24.20;;;21.80;;
75171;SDS011;63750;52.418;20.742;2023-06-22T04:06:33;26.70;;;24.10;;
75171;SDS011;63750;52.418;20.742;2023-06-22T04:09:01;23.90;;;21.60;;
75171;SDS011;63750;52.418;20.742;2023-06-22T04:11:29;24.90;;;22.40;;
75171;SDS011;63750;52.418;20.742;2023-06-22T04:13:57;25.80;;;23.30;;
75171;SDS011;63750;52.418;20.742;2023-06-22T04:16:26;23.20;;;20.90;;
75171;SDS011;63750;52.418;20.742;2023-06-22T04:18:54;23.30;;;21.10;;
75171;SDS011;63750;52.418;20.742;2023-06-22T04:21:22;24.10;;;21.60;;
75171;SDS011;63750;52.418;20.742;2023-06-22T04:23:50;23.20;;;20.80;;
75171;SDS011;63750;52.418;20.742;2023-06-22T04:26:18;24.90;;;22.50;;
75171;SDS011;63750;52.418;20.742;2023-06-22T04:28:46;21.70;;;19.40;;
75171;SDS011;63750;52.418;20.742;2023-06-22T04:31:14;23.50;;;21.10;;
75171;SDS011;63750;52.418;20.742;2023-06-22T04:33:43;22.50;;;20.40;;
75171;SDS011;63750;52.418;20.742;2023-06-22T04:36:11;24.00;;;21.50;;
75171;SDS011;63750;52.418;20.742;2023-06-22T04:38:39;22.30;;;20.20;;
75171;SDS011;63750;52.418;20.742;2023-06-22T04:41:07;21.30;;;19.30;;
75171;SDS011;63750;52.418;20.742;2023-06-22T04:43:36;21.00;;;18.90;;
75171;SDS011;63750;52.418;20.742;2023-06-22T04:46:04;21.40;;;19.30;;
75171;SDS011;63750;52.418;20.742;2023-06-22T04:48:32;18.80;;;17.10;;
75171;SDS011;63750;52.418;20.742;2023-06-22T04:51:00;18.80;;;17.10;;
75171;SDS011;63750;52.418;20.742;2023-06-22T04:53:28;19.90;;;17.90;;
75171;SDS011;63750;52.418;20.742;2023-06-22T04:55:56;19.60;;;17.80;;
75171;SDS011;63750;52.418;20.742;2023-06-22T04:58:25;21.20;;;19.20;;
75171;SDS011;63750;52.418;20.742;2023-06-22T05:00:53;18.70;;;17.00;;
75171;SDS011;63750;52.418;20.742;2023-06-22T05:03:21;20.90;;;18.90;;
75171;SDS011;63750;52.418;20.742;2023-06-22T05:05:49;19.00;;;17.20;;
75171;SDS011;63750;52.418;20.742;2023-06-22T05:08:17;18.90;;;17.10;;
75171;SDS011;63750;52.418;20.742;2023-06-22T05:10:45;20.30;;;18.40;;
75171;SDS011;63750;52.418;20.742;2023-06-22T05:13:13;20.30;;;18.30;;
75171;SDS011;63750;52.418;20.742;2023-06-22T05:15:41;19.60;;;17.60;;
75171;SDS011;63750;52.418;20.742;2023-06-22T05:18:09;19.70;;;17.60;;
75171;SDS011;63750;52.418;20.742;2023-06-22T05:20:37;18.50;;;16.60;;
75171;SDS011;63750;52.418;20.742;2023-06-22T05:23:06;19.20;;;17.30;;
75171;SDS011;63750;52.418;20.742;2023-06-22T05:25:34;18.00;;;16.20;;
75171;SDS011;63750;52.418;20.742;2023-06-22T05:28:02;18.40;;;16.60;;
75171;SDS011;63750;52.418;20.742;2023-06-22T05:30:30;18.90;;;17.10;;
75171;SDS011;63750;52.418;20.742;2023-06-22T05:32:58;16.70;;;15.20;;
75171;SDS011;63750;52.418;20.742;2023-06-22T05:35:26;19.20;;;15.50;;
75171;SDS011;63750;52.418;20.742;2023-06-22T05:37:54;15.80;;;14.40;;
75171;SDS011;63750;52.418;20.742;2023-06-22T05:40:23;17.70;;;16.10;;
75171;SDS011;63750;52.418;20.742;2023-06-22T05:42:51;17.70;;;16.00;;
75171;SDS011;63750;52.418;20.742;2023-06-22T05:45:19;16.40;;;14.90;;
75171;SDS011;63750;52.418;20.742;2023-06-22T05:47:47;17.80;;;16.20;;
75171;SDS011;63750;52.418;20.742;2023-06-22T05:50:15;16.70;;;14.90;;
75171;SDS011;63750;52.418;20.742;2023-06-22T05:52:43;16.70;;;15.10;;
75171;SDS011;63750;52.418;20.742;2023-06-22T05:55:11;16.10;;;14.60;;
75171;SDS011;63750;52.418;20.742;2023-06-22T05:57:40;16.80;;;15.20;;
75171;SDS011;63750;52.418;20.742;2023-06-22T06:00:08;15.70;;;14.20;;
75171;SDS011;63750;52.418;20.742;2023-06-22T06:02:38;17.50;;;15.80;;
75171;SDS011;63750;52.418;20.742;2023-06-22T06:05:06;15.10;;;13.70;;
75171;SDS011;63750;52.418;20.742;2023-06-22T06:07:34;17.00;;;15.30;;
75171;SDS011;63750;52.418;20.742;2023-06-22T06:10:03;15.60;;;14.10;;
75171;SDS011;63750;52.418;20.742;2023-06-22T06:12:32;16.90;;;15.20;;
75171;SDS011;63750;52.418;20.742;2023-06-22T06:15:00;16.80;;;15.20;;
75171;SDS011;63750;52.418;20.742;2023-06-22T06:17:28;16.80;;;15.30;;
75171;SDS011;63750;52.418;20.742;2023-06-22T06:19:58;16.00;;;14.40;;
75171;SDS011;63750;52.418;20.742;2023-06-22T06:22:27;14.20;;;12.90;;
75171;SDS011;63750;52.418;20.742;2023-06-22T06:24:55;13.80;;;12.60;;
75171;SDS011;63750;52.418;20.742;2023-06-22T06:27:23;14.30;;;13.10;;
75171;SDS011;63750;52.418;20.742;2023-06-22T06:29:51;14.00;;;12.70;;
75171;SDS011;63750;52.418;20.742;2023-06-22T06:32:19;12.60;;;11.40;;
75171;SDS011;63750;52.418;20.742;2023-06-22T06:34:47;12.30;;;11.20;;
75171;SDS011;63750;52.418;20.742;2023-06-22T06:37:15;12.70;;;11.40;;
75171;SDS011;63750;52.418;20.742;2023-06-22T06:39:43;11.70;;;10.50;;
75171;SDS011;63750;52.418;20.742;2023-06-22T06:42:11;13.20;;;12.00;;
75171;SDS011;63750;52.418;20.742;2023-06-22T06:44:40;11.10;;;10.10;;
75171;SDS011;63750;52.418;20.742;2023-06-22T06:47:08;11.60;;;10.40;;
75171;SDS011;63750;52.418;20.742;2023-06-22T06:49:36;11.60;;;10.00;;
75171;SDS011;63750;52.418;20.742;2023-06-22T06:52:05;9.90;;;9.00;;
75171;SDS011;63750;52.418;20.742;2023-06-22T06:54:34;11.80;;;9.90;;
75171;SDS011;63750;52.418;20.742;2023-06-22T06:57:02;10.50;;;9.50;;
75171;SDS011;63750;52.418;20.742;2023-06-22T06:59:31;10.00;;;9.00;;
75171;SDS011;63750;52.418;20.742;2023-06-22T07:01:59;10.50;;;9.50;;
75171;SDS011;63750;52.418;20.742;2023-06-22T07:04:27;9.90;;;8.60;;
75171;SDS011;63750;52.418;20.742;2023-06-22T07:06:55;9.50;;;8.60;;
75171;SDS011;63750;52.418;20.742;2023-06-22T07:09:23;10.50;;;9.40;;
75171;SDS011;63750;52.418;20.742;2023-06-22T07:11:51;9.60;;;8.70;;
75171;SDS011;63750;52.418;20.742;2023-06-22T07:14:19;9.60;;;8.70;;
75171;SDS011;63750;52.418;20.742;2023-06-22T07:16:47;9.10;;;8.20;;
75171;SDS011;63750;52.418;20.742;2023-06-22T07:19:15;9.40;;;8.50;;
75171;SDS011;63750;52.418;20.742;2023-06-22T07:21:50;9.60;;;8.70;;
75171;SDS011;63750;52.418;20.742;2023-06-22T07:24:18;9.30;;;8.40;;
75171;SDS011;63750;52.418;20.742;2023-06-22T07:26:47;8.70;;;7.80;;
75171;SDS011;63750;52.418;20.742;2023-06-22T07:29:15;8.90;;;7.90;;
75171;SDS011;63750;52.418;20.742;2023-06-22T07:31:44;8.70;;;7.70;;
75171;SDS011;63750;52.418;20.742;2023-06-22T07:34:12;8.80;;;7.90;;
75171;SDS011;63750;52.418;20.742;2023-06-22T07:36:41;7.40;;;6.70;;
75171;SDS011;63750;52.418;20.742;2023-06-22T07:39:09;8.00;;;7.20;;
75171;SDS011;63750;52.418;20.742;2023-06-22T07:41:37;8.00;;;7.10;;
75171;SDS011;63750;52.418;20.742;2023-06-22T07:44:06;7.60;;;6.80;;
75171;SDS011;63750;52.418;20.742;2023-06-22T07:46:35;6.90;;;6.30;;
75171;SDS011;63750;52.418;20.742;2023-06-22T07:49:03;7.00;;;6.30;;
75171;SDS011;63750;52.418;20.742;2023-06-22T07:51:31;6.60;;;5.80;;
75171;SDS011;63750;52.418;20.742;2023-06-22T07:53:59;6.40;;;5.80;;
75171;SDS011;63750;52.418;20.742;2023-06-22T07:56:27;7.70;;;5.40;;
75171;SDS011;63750;52.418;20.742;2023-06-22T07:58:55;6.40;;;5.80;;
75171;SDS011;63750;52.418;20.742;2023-06-22T08:01:23;6.40;;;5.70;;
75171;SDS011;63750;52.418;20.742;2023-06-22T08:03:51;6.00;;;5.50;;
75171;SDS011;63750;52.418;20.742;2023-06-22T08:06:20;6.60;;;5.30;;
75171;SDS011;63750;52.418;20.742;2023-06-22T08:08:48;5.80;;;5.30;;
75171;SDS011;63750;52.418;20.742;2023-06-22T08:11:16;5.50;;;4.90;;
75171;SDS011;63750;52.418;20.742;2023-06-22T08:13:44;5.70;;;5.20;;
75171;SDS011;63750;52.418;20.742;2023-06-22T08:16:12;5.50;;;5.00;;
75171;SDS011;63750;52.418;20.742;2023-06-22T08:18:40;5.70;;;5.10;;
75171;SDS011;63750;52.418;20.742;2023-06-22T08:21:08;6.10;;;5.50;;
75171;SDS011;63750;52.418;20.742;2023-06-22T08:23:36;6.00;;;5.50;;
75171;SDS011;63750;52.418;20.742;2023-06-22T08:26:04;6.10;;;5.60;;
75171;SDS011;63750;52.418;20.742;2023-06-22T08:28:32;6.50;;;5.90;;
75171;SDS011;63750;52.418;20.742;2023-06-22T08:31:01;6.50;;;5.90;;
75171;SDS011;63750;52.418;20.742;2023-06-22T08:33:30;6.20;;;5.60;;
75171;SDS011;63750;52.418;20.742;2023-06-22T08:35:58;5.80;;;5.30;;
75171;SDS011;63750;52.418;20.742;2023-06-22T08:38:27;6.50;;;5.90;;
75171;SDS011;63750;52.418;20.742;2023-06-22T08:40:55;6.80;;;6.20;;
75171;SDS011;63750;52.418;20.742;2023-06-22T08:43:23;6.20;;;5.60;;
75171;SDS011;63750;52.418;20.742;2023-06-22T08:45:51;6.20;;;5.40;;
75171;SDS011;63750;52.418;20.742;2023-06-22T08:48:19;6.40;;;5.80;;
75171;SDS011;63750;52.418;20.742;2023-06-22T08:50:47;6.70;;;6.00;;
75171;SDS011;63750;52.418;20.742;2023-06-22T08:53:15;8.10;;;6.90;;
75171;SDS011;63750;52.418;20.742;2023-06-22T08:55:43;6.20;;;5.70;;
75171;SDS011;63750;52.418;20.742;2023-06-22T08:58:11;7.10;;;6.40;;
75171;SDS011;63750;52.418;20.742;2023-06-22T09:00:39;7.20;;;6.50;;
75171;SDS011;63750;52.418;20.742;2023-06-22T09:03:08;7.40;;;6.60;;
75171;SDS011;63750;52.418;20.742;2023-06-22T09:05:36;9.10;;;7.10;;
75171;SDS011;63750;52.418;20.742;2023-06-22T09:08:05;7.00;;;6.30;;
75171;SDS011;63750;52.418;20.742;2023-06-22T09:10:33;6.70;;;6.20;;
75171;SDS011;63750;52.418;20.742;2023-06-22T09:13:01;7.30;;;6.60;;
75171;SDS011;63750;52.418;20.742;2023-06-22T09:15:29;6.80;;;6.20;;
75171;SDS011;63750;52.418;20.742;2023-06-22T09:17:58;7.30;;;6.60;;
75171;SDS011;63750;52.418;20.742;2023-06-22T09:20:26;8.30;;;7.40;;
75171;SDS011;63750;52.418;20.742;2023-06-22T09:22:54;7.50;;;6.80;;
75171;SDS011;63750;52.418;20.742;2023-06-22T09:25:23;7.70;;;7.00;;
75171;SDS011;63750;52.418;20.742;2023-06-22T09:27:51;8.20;;;7.40;;
75171;SDS011;63750;52.418;20.742;2023-06-22T09:30:19;8.40;;;7.60;;
75171;SDS011;63750;52.418;20.742;2023-06-22T09:32:48;7.70;;;6.90;;
75171;SDS011;63750;52.418;20.742;2023-06-22T09:35:16;7.40;;;6.80;;
75171;SDS011;63750;52.418;20.742;2023-06-22T09:37:44;7.70;;;6.90;;
75171;SDS011;63750;52.418;20.742;2023-06-22T09:40:13;7.80;;;7.10;;
75171;SDS011;63750;52.418;20.742;2023-06-22T09:42:41;7.20;;;6.60;;
75171;SDS011;63750;52.418;20.742;2023-06-22T09:45:10;7.60;;;6.90;;
75171;SDS011;63750;52.418;20.742;2023-06-22T09:47:38;7.90;;;7.20;;
75171;SDS011;63750;52.418;20.742;2023-06-22T09:50:07;7.50;;;6.90;;
75171;SDS011;63750;52.418;20.742;2023-06-22T09:52:39;8.50;;;7.70;;
75171;SDS011;63750;52.418;20.742;2023-06-22T09:55:08;9.00;;;8.00;;
75171;SDS011;63750;52.418;20.742;2023-06-22T09:57:36;8.10;;;7.30;;
75171;SDS011;63750;52.418;20.742;2023-06-22T10:00:05;8.00;;;6.80;;
75171;SDS011;63750;52.418;20.742;2023-06-22T10:02:35;8.00;;;7.00;;
75171;SDS011;63750;52.418;20.742;2023-06-22T10:05:03;8.10;;;7.30;;
75171;SDS011;63750;52.418;20.742;2023-06-22T10:07:33;8.00;;;7.30;;
75171;SDS011;63750;52.418;20.742;2023-06-22T10:10:01;7.80;;;7.00;;
75171;SDS011;63750;52.418;20.742;2023-06-22T10:12:30;8.10;;;7.30;;
75171;SDS011;63750;52.418;20.742;2023-06-22T10:14:58;10.70;;;7.70;;
75171;SDS011;63750;52.418;20.742;2023-06-22T10:17:26;8.00;;;7.30;;
75171;SDS011;63750;52.418;20.742;2023-06-22T10:19:54;7.50;;;6.70;;
75171;SDS011;63750;52.418;20.742;2023-06-22T10:22:22;7.80;;;7.00;;
75171;SDS011;63750;52.418;20.742;2023-06-22T10:24:50;7.80;;;7.20;;
75171;SDS011;63750;52.418;20.742;2023-06-22T10:27:19;7.70;;;7.00;;
75171;SDS011;63750;52.418;20.742;2023-06-22T10:29:47;8.10;;;7.30;;
75171;SDS011;63750;52.418;20.742;2023-06-22T10:32:15;7.50;;;6.70;;
75171;SDS011;63750;52.418;20.742;2023-06-22T10:34:43;7.50;;;6.90;;
75171;SDS011;63750;52.418;20.742;2023-06-22T10:37:11;7.20;;;6.60;;
75171;SDS011;63750;52.418;20.742;2023-06-22T10:39:39;7.60;;;6.90;;
75171;SDS011;63750;52.418;20.742;2023-06-22T10:42:08;7.40;;;6.60;;
75171;SDS011;63750;52.418;20.742;2023-06-22T10:44:36;7.80;;;7.00;;
75171;SDS011;63750;52.418;20.742;2023-06-22T10:47:05;8.10;;;7.40;;
75171;SDS011;63750;52.418;20.742;2023-06-22T10:49:34;7.40;;;6.70;;
75171;SDS011;63750;52.418;20.742;2023-06-22T10:52:02;7.80;;;7.10;;
75171;SDS011;63750;52.418;20.742;2023-06-22T10:54:32;7.70;;;7.10;;
75171;SDS011;63750;52.418;20.742;2023-06-22T10:57:00;7.80;;;7.10;;
75171;SDS011;63750;52.418;20.742;2023-06-22T10:59:29;8.20;;;7.40;;
75171;SDS011;63750;52.418;20.742;2023-06-22T11:01:57;6.90;;;6.30;;
75171;SDS011;63750;52.418;20.742;2023-06-22T11:04:25;7.30;;;6.70;;
75171;SDS011;63750;52.418;20.742;2023-06-22T11:06:54;8.50;;;7.50;;
75171;SDS011;63750;52.418;20.742;2023-06-22T11:09:22;7.90;;;7.20;;
75171;SDS011;63750;52.418;20.742;2023-06-22T11:11:50;7.50;;;6.80;;
75171;SDS011;63750;52.418;20.742;2023-06-22T11:14:19;8.50;;;7.80;;
75171;SDS011;63750;52.418;20.742;2023-06-22T11:16:47;8.10;;;7.30;;
75171;SDS011;63750;52.418;20.742;2023-06-22T11:19:15;7.80;;;7.00;;
75171;SDS011;63750;52.418;20.742;2023-06-22T11:21:44;7.40;;;6.80;;
75171;SDS011;63750;52.418;20.742;2023-06-22T11:24:12;8.10;;;7.50;;
75171;SDS011;63750;52.418;20.742;2023-06-22T11:26:40;7.80;;;7.20;;
75171;SDS011;63750;52.418;20.742;2023-06-22T11:29:08;8.90;;;7.60;;
75171;SDS011;63750;52.418;20.742;2023-06-22T11:31:36;8.20;;;7.60;;
75171;SDS011;63750;52.418;20.742;2023-06-22T11:34:04;7.90;;;7.20;;
75171;SDS011;63750;52.418;20.742;2023-06-22T11:36:32;7.40;;;6.80;;
75171;SDS011;63750;52.418;20.742;2023-06-22T11:39:00;7.90;;;7.10;;
75171;SDS011;63750;52.418;20.742;2023-06-22T11:41:28;8.40;;;7.60;;
75171;SDS011;63750;52.418;20.742;2023-06-22T11:43:56;8.20;;;7.40;;
75171;SDS011;63750;52.418;20.742;2023-06-22T11:46:24;7.60;;;6.90;;
75171;SDS011;63750;52.418;20.742;2023-06-22T11:48:52;7.90;;;7.10;;
75171;SDS011;63750;52.418;20.742;2023-06-22T11:51:21;7.40;;;6.80;;
75171;SDS011;63750;52.418;20.742;2023-06-22T11:53:49;8.70;;;7.20;;
75171;SDS011;63750;52.418;20.742;2023-06-22T11:56:17;7.90;;;7.10;;
75171;SDS011;63750;52.418;20.742;2023-06-22T11:58:45;8.30;;;7.50;;
75171;SDS011;63750;52.418;20.742;2023-06-22T12:01:13;7.90;;;7.20;;
75171;SDS011;63750;52.418;20.742;2023-06-22T12:03:41;6.90;;;6.30;;
75171;SDS011;63750;52.418;20.742;2023-06-22T12:06:09;7.90;;;7.30;;
75171;SDS011;63750;52.418;20.742;2023-06-22T12:08:38;8.10;;;7.50;;
75171;SDS011;63750;52.418;20.742;2023-06-22T12:11:06;8.20;;;7.40;;
75171;SDS011;63750;52.418;20.742;2023-06-22T12:13:34;8.20;;;7.50;;
75171;SDS011;63750;52.418;20.742;2023-06-22T12:16:02;7.90;;;7.20;;
75171;SDS011;63750;52.418;20.742;2023-06-22T12:18:32;7.90;;;7.20;;
75171;SDS011;63750;52.418;20.742;2023-06-22T12:21:00;8.70;;;8.00;;
75171;SDS011;63750;52.418;20.742;2023-06-22T12:23:28;8.40;;;7.60;;
75171;SDS011;63750;52.418;20.742;2023-06-22T12:25:56;7.70;;;7.10;;
75171;SDS011;63750;52.418;20.742;2023-06-22T12:28:24;9.20;;;8.30;;
75171;SDS011;63750;52.418;20.742;2023-06-22T12:30:52;9.10;;;8.20;;
75171;SDS011;63750;52.418;20.742;2023-06-22T12:33:20;8.50;;;7.80;;
75171;SDS011;63750;52.418;20.742;2023-06-22T12:35:48;8.50;;;7.80;;
75171;SDS011;63750;52.418;20.742;2023-06-22T12:38:16;9.40;;;8.50;;
75171;SDS011;63750;52.418;20.742;2023-06-22T12:40:45;9.30;;;8.50;;
75171;SDS011;63750;52.418;20.742;2023-06-22T12:43:13;9.20;;;8.50;;
75171;SDS011;63750;52.418;20.742;2023-06-22T12:45:41;9.50;;;8.70;;
75171;SDS011;63750;52.418;20.742;2023-06-22T12:48:09;8.50;;;7.80;;
75171;SDS011;63750;52.418;20.742;2023-06-22T12:50:37;9.30;;;8.50;;
75171;SDS011;63750;52.418;20.742;2023-06-22T12:53:05;9.10;;;8.30;;
75171;SDS011;63750;52.418;20.742;2023-06-22T12:55:33;9.50;;;8.60;;
75171;SDS011;63750;52.418;20.742;2023-06-22T12:58:01;8.90;;;8.10;;
75171;SDS011;63750;52.418;20.742;2023-06-22T13:00:29;8.60;;;7.70;;
75171;SDS011;63750;52.418;20.742;2023-06-22T13:02:57;8.90;;;8.20;;
75171;SDS011;63750;52.418;20.742;2023-06-22T13:05:26;8.30;;;7.50;;
75171;SDS011;63750;52.418;20.742;2023-06-22T13:07:54;8.60;;;7.90;;
75171;SDS011;63750;52.418;20.742;2023-06-22T13:10:22;9.10;;;8.40;;
75171;SDS011;63750;52.418;20.742;2023-06-22T13:12:50;9.80;;;8.90;;
75171;SDS011;63750;52.418;20.742;2023-06-22T13:15:18;9.50;;;8.70;;
75171;SDS011;63750;52.418;20.742;2023-06-22T13:17:46;9.50;;;8.70;;
75171;SDS011;63750;52.418;20.742;2023-06-22T13:20:14;9.30;;;8.50;;
75171;SDS011;63750;52.418;20.742;2023-06-22T13:22:42;9.20;;;8.40;;
75171;SDS011;63750;52.418;20.742;2023-06-22T13:25:10;8.50;;;7.70;;
75171;SDS011;63750;52.418;20.742;2023-06-22T13:27:39;9.50;;;8.70;;
75171;SDS011;63750;52.418;20.742;2023-06-22T13:30:08;9.30;;;8.50;;
75171;SDS011;63750;52.418;20.742;2023-06-22T13:32:37;10.10;;;8.20;;
75171;SDS011;63750;52.418;20.742;2023-06-22T13:35:05;9.10;;;8.30;;
75171;SDS011;63750;52.418;20.742;2023-06-22T13:37:34;9.80;;;8.90;;
75171;SDS011;63750;52.418;20.742;2023-06-22T13:40:02;8.60;;;7.90;;
75171;SDS011;63750;52.418;20.742;2023-06-22T13:42:31;8.60;;;7.90;;
75171;SDS011;63750;52.418;20.742;2023-06-22T13:45:00;8.70;;;7.90;;
75171;SDS011;63750;52.418;20.742;2023-06-22T13:47:28;8.20;;;7.50;;
75171;SDS011;63750;52.418;20.742;2023-06-22T13:49:56;9.20;;;8.40;;
75171;SDS011;63750;52.418;20.742;2023-06-22T13:52:25;8.60;;;7.90;;
75171;SDS011;63750;52.418;20.742;2023-06-22T13:54:53;8.00;;;7.30;;
75171;SDS011;63750;52.418;20.742;2023-06-22T13:57:21;8.60;;;7.90;;
75171;SDS011;63750;52.418;20.742;2023-06-22T13:59:49;10.40;;;9.50;;
75171;SDS011;63750;52.418;20.742;2023-06-22T14:02:19;8.20;;;7.50;;
75171;SDS011;63750;52.418;20.742;2023-06-22T14:04:47;7.30;;;6.70;;
75171;SDS011;63750;52.418;20.742;2023-06-22T14:07:15;7.50;;;6.90;;
75171;SDS011;63750;52.418;20.742;2023-06-22T14:09:43;7.40;;;6.80;;
75171;SDS011;63750;52.418;20.742;2023-06-22T14:12:12;7.60;;;6.90;;
75171;SDS011;63750;52.418;20.742;2023-06-22T14:14:40;8.50;;;7.70;;
75171;SDS011;63750;52.418;20.742;2023-06-22T14:17:08;7.70;;;7.10;;
75171;SDS011;63750;52.418;20.742;2023-06-22T14:19:36;7.50;;;6.90;;
75171;SDS011;63750;52.418;20.742;2023-06-22T14:22:05;7.00;;;6.40;;
75171;SDS011;63750;52.418;20.742;2023-06-22T14:24:33;6.50;;;6.00;;
75171;SDS011;63750;52.418;20.742;2023-06-22T14:27:01;7.40;;;6.60;;